createdAt,value
2023-04-02T00:02:38.477Z,4.50
2023-04-02T00:07:38.373Z,3.70
2023-04-02T00:12:38.396Z,3.70
2023-04-02T00:22:38.380Z,3.20
2023-04-02T00:42:38.392Z,3.90
2023-04-02T00:52:38.380Z,2.80
2023-04-02T00:57:38.383Z,2.80
2023-04-02T01:07:38.408Z,2.00
2023-04-02T01:12:38.418Z,2.00
2023-04-02T01:17:38.449Z,2.00
2023-04-02T01:27:38.407Z,3.50
2023-04-02T01:32:38.469Z,3.50
2023-04-02T01:37:38.389Z,3.50
2023-04-02T01:42:38.394Z,3.50
2023-04-02T01:52:38.410Z,2.60
2023-04-02T01:57:38.386Z,2.60
2023-04-02T02:02:38.538Z,2.60
2023-04-02T02:07:38.405Z,2.20
2023-04-02T02:12:38.430Z,2.20
2023-04-02T02:17:38.472Z,2.20
2023-04-02T02:22:38.410Z,3.30
2023-04-02T02:27:38.413Z,3.30
2023-04-02T02:42:38.424Z,2.10
2023-04-02T02:47:38.472Z,2.10
2023-04-02T02:52:38.458Z,2.90
2023-04-02T02:57:38.395Z,2.90
2023-04-02T03:02:38.542Z,2.90
2023-04-02T03:07:38.444Z,3.30
2023-04-02T03:12:38.444Z,3.30
2023-04-02T03:17:38.420Z,3.30
2023-04-02T03:22:38.416Z,2.10
2023-04-02T03:27:38.435Z,2.10
2023-04-02T03:32:38.476Z,2.10
2023-04-02T03:37:38.423Z,2.70
2023-04-02T03:42:38.434Z,2.70
2023-04-02T03:47:38.465Z,2.70
2023-04-02T03:52:38.424Z,2.10
2023-04-02T03:57:38.449Z,2.10
2023-04-02T04:07:38.447Z,2.80
2023-04-02T04:12:38.632Z,2.80
2023-04-02T04:17:38.504Z,2.80
2023-04-02T04:22:38.426Z,2.90
2023-04-02T04:27:38.452Z,2.90
2023-04-02T04:32:38.514Z,2.90
2023-04-02T04:47:38.485Z,4.10
2023-04-02T04:52:38.439Z,2.50
2023-04-02T05:07:38.476Z,2.00
2023-04-02T05:12:38.458Z,2.00
2023-04-02T05:17:38.475Z,2.00
2023-04-02T05:22:40.209Z,2.10
2023-04-02T05:27:38.463Z,2.10
2023-04-02T05:32:38.458Z,2.10
2023-04-02T05:37:38.463Z,1.90
2023-04-02T05:42:38.452Z,1.90
2023-04-02T05:47:38.467Z,1.90
2023-04-02T05:52:38.455Z,2.00
2023-04-02T05:57:46.754Z,2.00
2023-04-02T06:02:38.612Z,2.00
2023-04-02T06:07:38.459Z,1.10
2023-04-02T06:12:38.485Z,1.10
2023-04-02T06:17:38.519Z,1.70
2023-04-02T06:22:38.480Z,1.70
2023-04-02T06:27:38.490Z,1.70
2023-04-02T06:32:38.559Z,1.20
2023-04-02T06:37:38.472Z,1.20
2023-04-02T06:42:38.486Z,1.20
2023-04-02T06:47:38.541Z,1.50
2023-04-02T06:52:38.480Z,1.50
2023-04-02T06:57:38.478Z,1.50
2023-04-02T07:02:38.500Z,1.50
2023-04-02T07:07:38.499Z,1.50
2023-04-02T07:12:38.508Z,1.50
2023-04-02T07:17:38.574Z,1.50
2023-04-02T07:22:38.476Z,1.50
2023-04-02T07:27:38.539Z,1.50
2023-04-02T07:32:38.533Z,1.50
2023-04-02T07:42:38.473Z,1.50
2023-04-02T07:47:38.516Z,1.30
2023-04-02T07:52:40.384Z,1.30
2023-04-02T07:57:38.480Z,1.30
2023-04-02T08:02:38.520Z,1.40
2023-04-02T08:07:38.505Z,1.40
2023-04-02T08:17:39.428Z,1.40
2023-04-02T08:27:38.550Z,1.40
2023-04-02T08:32:38.503Z,1.20
2023-04-02T08:37:38.512Z,1.20
2023-04-02T08:42:38.509Z,1.20
2023-04-02T08:47:38.525Z,1.60
2023-04-02T08:57:38.512Z,1.60
2023-04-02T09:02:38.567Z,1.70
2023-04-02T09:07:38.518Z,1.70
2023-04-02T09:12:39.268Z,1.70
2023-04-02T09:17:53.017Z,1.90
2023-04-02T09:22:38.531Z,1.90
2023-04-02T09:27:38.524Z,1.90
2023-04-02T09:32:38.541Z,1.30
2023-04-02T09:37:38.509Z,1.30
2023-04-02T09:42:38.537Z,1.30
2023-04-02T09:47:40.243Z,2.00
2023-04-02T09:52:38.512Z,2.00
2023-04-02T09:57:38.540Z,2.00
2023-04-02T10:02:38.567Z,2.00
2023-04-02T10:07:38.538Z,2.00
2023-04-02T10:12:38.516Z,2.00
2023-04-02T10:17:38.554Z,1.30
2023-04-02T10:22:38.540Z,1.30
2023-04-02T10:27:38.535Z,1.30
2023-04-02T10:32:38.573Z,1.50
2023-04-02T10:37:38.558Z,1.50
2023-04-02T10:42:38.546Z,1.50
2023-04-02T10:47:38.612Z,1.20
2023-04-02T10:52:38.530Z,1.20
2023-04-02T10:57:38.622Z,1.20
2023-04-02T11:02:38.579Z,1.00
2023-04-02T11:07:38.545Z,1.00
2023-04-02T11:12:41.780Z,1.00
2023-04-02T11:17:38.589Z,1.40
2023-04-02T11:22:38.545Z,1.40
2023-04-02T11:32:38.565Z,1.60
2023-04-02T11:37:38.597Z,1.60
2023-04-02T11:42:38.534Z,1.60
2023-04-02T11:47:38.545Z,1.30
2023-04-02T11:52:38.567Z,1.30
2023-04-02T11:57:38.573Z,1.30
2023-04-02T12:02:38.669Z,1.40
2023-04-02T12:07:38.625Z,1.40
2023-04-02T12:12:38.582Z,1.40
2023-04-02T12:17:38.561Z,1.80
2023-04-02T12:22:38.553Z,1.80
2023-04-02T12:27:38.563Z,1.80
2023-04-02T12:32:39.738Z,1.60
2023-04-02T12:37:38.572Z,1.60
2023-04-02T12:42:38.545Z,1.60
2023-04-02T12:47:38.612Z,1.20
2023-04-02T12:52:38.570Z,1.20
2023-04-02T12:57:38.673Z,1.20
2023-04-02T13:02:38.665Z,1.30
2023-04-02T13:07:38.547Z,1.30
2023-04-02T13:12:38.583Z,1.30
2023-04-02T13:17:38.638Z,1.70
2023-04-02T13:22:38.586Z,1.70
2023-04-02T13:27:38.573Z,1.70
2023-04-02T13:32:39.610Z,0.90
2023-04-02T13:37:38.592Z,0.90
2023-04-02T13:42:38.583Z,0.90
2023-04-02T13:47:41.151Z,1.80
2023-04-02T13:52:38.593Z,1.80
2023-04-02T13:57:38.620Z,1.80
2023-04-02T14:02:38.623Z,1.20
2023-04-02T14:07:38.591Z,1.20
2023-04-02T14:12:38.595Z,1.20
2023-04-02T14:17:38.650Z,1.60
2023-04-02T14:22:38.594Z,1.60
2023-04-02T14:27:40.238Z,1.60
2023-04-02T14:32:38.672Z,1.20
2023-04-02T14:37:38.587Z,1.20
2023-04-02T14:42:38.596Z,1.20
2023-04-02T14:47:38.650Z,1.20
2023-04-02T14:52:38.609Z,1.20
2023-04-02T14:57:38.653Z,1.20
2023-04-02T15:02:38.626Z,0.70
2023-04-02T15:07:38.737Z,0.70
2023-04-02T15:12:38.622Z,0.70
2023-04-02T15:17:38.626Z,1.00
2023-04-02T15:22:40.132Z,1.00
2023-04-02T15:27:38.625Z,1.00
2023-04-02T15:32:38.676Z,0.90
2023-04-02T15:37:38.594Z,0.90
2023-04-02T15:42:38.652Z,0.90
2023-04-02T15:47:38.653Z,0.90
2023-04-02T15:52:38.633Z,0.90
2023-04-02T15:57:38.648Z,0.90
2023-04-02T16:02:38.686Z,1.30
2023-04-02T16:07:38.644Z,1.30
2023-04-02T16:12:38.650Z,1.30
2023-04-02T16:17:38.686Z,1.10
2023-04-02T16:22:40.559Z,1.10
2023-04-02T16:27:38.642Z,1.10
2023-04-02T16:32:38.714Z,1.20
2023-04-02T16:42:38.642Z,1.20
2023-04-02T16:47:38.717Z,0.90
2023-04-02T16:52:38.656Z,0.90
2023-04-02T17:02:38.698Z,0.70
2023-04-02T17:07:38.650Z,0.70
2023-04-02T17:12:38.644Z,0.70
2023-04-02T17:17:38.686Z,0.60
2023-04-02T17:22:38.670Z,0.60
2023-04-02T17:27:38.660Z,0.60
2023-04-02T17:37:38.665Z,1.30
2023-04-02T17:42:38.657Z,1.30
2023-04-02T17:52:38.646Z,1.10
2023-04-02T17:57:38.856Z,1.10
2023-04-02T18:02:38.796Z,1.40
2023-04-02T18:07:38.687Z,1.40
2023-04-02T18:17:38.706Z,1.00
2023-04-02T18:22:38.665Z,1.00
2023-04-02T18:27:38.670Z,1.00
2023-04-02T18:32:38.718Z,1.70
2023-04-02T18:37:38.676Z,1.70
2023-04-02T18:42:38.676Z,1.70
2023-04-02T18:47:38.735Z,2.00
2023-04-02T18:52:38.700Z,2.00
2023-04-02T18:57:38.718Z,2.00
2023-04-02T19:02:38.729Z,2.80
2023-04-02T19:07:38.704Z,2.80
2023-04-02T19:12:38.690Z,2.80
2023-04-02T19:27:38.703Z,2.10
2023-04-02T19:32:38.743Z,1.40
2023-04-02T19:37:38.706Z,1.40
2023-04-02T19:42:38.690Z,1.40
2023-04-02T19:47:38.725Z,1.50
2023-04-02T19:52:38.701Z,1.50
2023-04-02T19:57:38.753Z,1.50
2023-04-02T20:07:38.719Z,1.50
2023-04-02T20:12:38.713Z,1.50
2023-04-02T20:17:38.779Z,1.60
2023-04-02T20:27:38.731Z,1.60
2023-04-02T20:37:38.708Z,1.60
2023-04-02T20:47:38.792Z,1.80
2023-04-02T20:57:38.718Z,1.80
2023-04-02T21:02:38.792Z,2.50
2023-04-02T21:07:38.738Z,2.50
2023-04-02T21:12:38.726Z,2.50
2023-04-02T21:17:38.791Z,2.10
2023-04-02T21:22:38.735Z,2.10
2023-04-02T21:27:38.735Z,2.10
2023-04-02T21:32:38.773Z,1.80
2023-04-02T21:37:38.742Z,1.80
2023-04-02T21:52:38.729Z,1.60
2023-04-02T22:07:38.730Z,1.70
2023-04-02T22:12:38.727Z,1.70
2023-04-02T22:17:39.889Z,1.50
2023-04-02T22:27:38.743Z,1.50
2023-04-02T22:32:38.766Z,1.70
2023-04-02T22:42:38.802Z,1.70
2023-04-02T22:52:38.750Z,1.50
2023-04-02T22:57:38.752Z,1.50
2023-04-02T23:02:38.822Z,0.80
2023-04-02T23:07:38.750Z,0.80
2023-04-02T23:12:38.752Z,0.80
2023-04-02T23:17:38.796Z,0.90
2023-04-02T23:22:38.787Z,0.90
2023-04-02T23:27:38.757Z,0.90
2023-04-02T23:32:38.770Z,1.00
2023-04-02T23:37:38.771Z,1.00
2023-04-02T23:47:38.819Z,1.10
2023-04-02T23:52:38.783Z,1.10
2023-04-02T23:57:38.773Z,1.10
